Time;durP1;ratioP1;P1;durP2;ratioP2;P2;SDS_P1;SDS_P2;PMS_P1;PMS_P2;Temp;Humidity;BMP_temperature;BMP_pressure;BME280_temperature;BME280_humidity;BME280_pressure;Samples;Min_cycle;Max_cycle;Signal;HPM_P1;HPM_P2
2023/05/23 00:01:15;;;;;;;8.07;1.75;;;14.80;1.00;;;;;;5085501;28;20567;-55
2023/05/23 00:03:41;;;;;;;11.90;2.30;;;;;;;;;;5092827;28;20213;-55
2023/05/23 00:06:07;;;;;;;11.15;2.28;;;14.70;1.00;;;;;;5093146;28;20258;-55
2023/05/23 00:08:33;;;;;;;8.23;1.70;;;14.60;99.90;;;;;;5093080;28;20199;-55
2023/05/23 00:10:59;;;;;;;12.70;2.00;;;14.30;99.90;;;;;;5092864;28;20176;-55
2023/05/23 00:13:25;;;;;;;9.07;1.98;;;14.40;99.90;;;;;;5091894;28;20195;-55
2023/05/23 00:15:51;;;;;;;6.95;2.08;;;;;;;;;;5092501;28;20693;-54
2023/05/23 00:18:17;;;;;;;10.80;1.92;;;;;;;;;;5092499;28;20316;-55
2023/05/23 00:20:44;;;;;;;8.57;1.85;;;;;;;;;;5092438;28;20168;-55
2023/05/23 00:23:17;;;;;;;10.90;2.17;;;14.10;1.00;;;;;;5089465;28;20180;-54
2023/05/23 00:25:47;;;;;;;5.82;1.92;;;;;;;;;;5057039;28;20176;-55
2023/05/23 00:28:13;;;;;;;5.70;2.08;;;14.10;99.90;;;;;;5089284;28;20225;-55
2023/05/23 00:30:39;;;;;;;9.27;2.28;;;14.00;99.90;;;;;;5074291;28;20541;-55
2023/05/23 00:33:05;;;;;;;11.63;2.10;;;;;;;;;;5092752;28;20270;-55
2023/05/23 00:35:30;;;;;;;9.18;2.50;;;13.80;1.00;;;;;;5092927;28;20168;-54
2023/05/23 00:37:56;;;;;;;10.35;2.17;;;13.70;99.90;;;;;;5092380;28;20726;-55
2023/05/23 00:40:22;;;;;;;8.93;2.17;;;14.00;1.00;;;;;;5091265;28;20715;-55
2023/05/23 00:42:48;;;;;;;6.32;1.75;;;13.90;99.90;;;;;;5092298;28;20183;-55
2023/05/23 00:45:15;;;;;;;12.07;2.13;;;;;;;;;;5073951;28;20176;-55
2023/05/23 00:47:42;;;;;;;6.68;1.83;;;;;;;;;;5092433;28;20229;-55
2023/05/23 00:50:10;;;;;;;13.65;2.03;;;;;;;;;;5092298;28;20176;-55
2023/05/23 00:52:36;;;;;;;8.73;1.88;;;;;;;;;;5092112;28;20167;-55
2023/05/23 00:55:03;;;;;;;10.80;2.20;;;13.90;31.60;;;;;;5092211;28;20233;-55
2023/05/23 00:57:28;;;;;;;10.90;2.45;;;13.90;1.00;;;;;;5092224;28;20208;-55
2023/05/23 00:59:55;;;;;;;12.75;2.40;;;;;;;;;;5092092;28;20184;-55
2023/05/23 01:02:20;;;;;;;7.97;1.80;;;13.60;99.90;;;;;;5092139;28;20176;-55
2023/05/23 01:04:55;;;;;;;11.23;2.00;;;13.60;1.00;;;;;;5092103;28;20181;-55
2023/05/23 01:07:21;;;;;;;10.10;2.30;;;13.70;99.90;;;;;;5092298;28;20171;-55
2023/05/23 01:09:47;;;;;;;12.27;2.55;;;13.50;1.00;;;;;;5091903;28;20209;-55
2023/05/23 01:12:25;;;;;;;9.52;1.90;;;13.60;1.00;;;;;;5092070;28;20172;-55
2023/05/23 01:15:39;;;;;;;9.55;1.83;;;13.40;99.90;;;;;;5092093;28;20224;-55
2023/05/23 01:18:08;;;;;;;8.48;2.20;;;;;;;;;;5049470;28;20832;-55
2023/05/23 01:20:39;;;;;;;13.02;2.03;;;13.20;64.50;;;;;;5087474;28;20551;-55
2023/05/23 01:23:23;;;;;;;11.52;2.13;;;13.40;99.90;;;;;;5091746;28;20172;-55
2023/05/23 01:26:18;;;;;;;15.70;2.10;;;13.20;1.00;;;;;;5091787;28;20595;-55
2023/05/23 01:28:48;;;;;;;11.63;2.00;;;13.20;82.60;;;;;;5091532;28;20669;-55
2023/05/23 01:31:16;;;;;;;7.57;2.17;;;;;;;;;;5091607;28;20242;-56
2023/05/23 01:33:43;;;;;;;10.90;2.42;;;;;;;;;;5091749;28;20175;-56
2023/05/23 01:36:12;;;;;;;13.70;2.28;;;13.10;1.00;;;;;;5091640;28;20607;-56
2023/05/23 01:38:38;;;;;;;8.65;2.13;;;13.00;1.00;;;;;;5091310;28;20251;-56
2023/05/23 01:41:04;;;;;;;13.98;2.55;;;;;;;;;;5091270;28;20255;-56
2023/05/23 01:43:30;;;;;;;22.38;2.50;;;;;;;;;;5091394;28;20221;-56
2023/05/23 01:45:57;;;;;;;14.70;2.47;;;;;;;;;;5091490;28;20168;-56
2023/05/23 01:48:24;;;;;;;10.15;2.10;;;;;;;;;;5091514;28;20203;-55
2023/05/23 01:50:50;;;;;;;8.13;2.38;;;13.20;99.90;;;;;;5090977;28;20172;-55
2023/05/23 01:53:18;;;;;;;12.98;2.50;;;;;;;;;;5091316;28;20221;-55
2023/05/23 01:55:45;;;;;;;10.30;2.88;;;;;;;;;;5091194;28;20250;-55
2023/05/23 01:58:11;;;;;;;11.85;2.42;;;;;;;;;;5091035;28;20242;-55
2023/05/23 02:00:36;;;;;;;10.60;2.45;;;12.90;99.90;;;;;;5091067;28;20171;-55
2023/05/23 02:03:03;;;;;;;7.35;2.47;;;13.00;1.00;;;;;;5091082;28;20252;-55
2023/05/23 02:05:29;;;;;;;13.32;2.70;;;12.90;1.00;;;;;;5091058;28;20225;-56
2023/05/23 02:07:54;;;;;;;7.57;2.28;;;12.90;1.00;;;;;;5090995;28;20172;-55
2023/05/23 02:10:20;;;;;;;13.68;2.67;;;12.90;1.00;;;;;;5091048;28;20171;-55
2023/05/23 02:12:46;;;;;;;6.97;2.25;;;12.90;1.00;;;;;;5090888;28;20237;-56
2023/05/23 02:15:11;;;;;;;11.13;2.40;;;12.90;1.00;;;;;;5090492;28;20237;-55
2023/05/23 02:17:41;;;;;;;10.93;2.65;;;12.70;49.40;;;;;;5090635;28;20581;-55
2023/05/23 02:20:08;;;;;;;11.80;2.42;;;12.70;53.70;;;;;;5090387;28;20180;-55
2023/05/23 02:22:34;;;;;;;17.25;2.75;;;12.80;99.90;;;;;;5090665;28;20187;-55
2023/05/23 02:25:00;;;;;;;11.40;2.72;;;12.80;99.90;;;;;;5072733;28;20233;-55
2023/05/23 02:27:26;;;;;;;9.35;2.72;;;12.70;99.90;;;;;;5090594;28;20176;-56
2023/05/23 02:29:51;;;;;;;12.00;2.75;;;12.60;99.90;;;;;;5090135;28;20241;-55
2023/05/23 02:32:17;;;;;;;16.73;2.83;;;12.50;99.90;;;;;;5090725;28;20175;-55
2023/05/23 02:34:45;;;;;;;9.00;2.33;;;12.60;99.90;;;;;;5089445;28;20203;-55
2023/05/23 02:37:12;;;;;;;12.27;3.05;;;12.60;99.90;;;;;;5090776;28;20179;-55
2023/05/23 02:39:37;;;;;;;10.33;2.50;;;12.60;99.90;;;;;;5087273;28;20184;-55
2023/05/23 02:42:03;;;;;;;15.43;2.67;;;12.60;99.90;;;;;;5090234;28;20224;-55
2023/05/23 02:44:29;;;;;;;15.40;2.55;;;12.50;99.90;;;;;;5090557;28;20179;-55
2023/05/23 02:46:54;;;;;;;11.60;2.90;;;12.50;99.90;;;;;;5078821;28;20211;-55
2023/05/23 02:49:20;;;;;;;8.20;2.35;;;12.50;99.90;;;;;;5073107;28;20204;-55
2023/05/23 02:51:46;;;;;;;13.52;2.40;;;12.50;99.90;;;;;;5072336;28;20543;-55
2023/05/23 02:54:11;;;;;;;9.90;2.70;;;12.50;99.90;;;;;;5090308;28;20182;-55
2023/05/23 02:56:37;;;;;;;11.10;2.83;;;12.50;99.90;;;;;;5088932;28;20180;-55
2023/05/23 02:59:03;;;;;;;17.42;2.92;;;12.50;99.90;;;;;;5084834;28;20204;-55
2023/05/23 03:01:28;;;;;;;15.73;2.77;;;12.60;99.90;;;;;;5089364;28;20191;-55
2023/05/23 03:03:54;;;;;;;15.40;2.87;;;12.50;99.90;;;;;;5092401;28;20178;-55
2023/05/23 03:06:21;;;;;;;9.97;2.33;;;12.50;99.90;;;;;;5094123;28;20184;-55
2023/05/23 03:08:46;;;;;;;15.40;4.10;;;12.50;99.90;;;;;;5094214;28;20176;-55
2023/05/23 03:11:12;;;;;;;12.07;2.40;;;12.50;99.90;;;;;;5093728;28;20241;-55
2023/05/23 03:13:38;;;;;;;8.77;2.85;;;12.30;99.90;;;;;;5093905;28;20601;-55
2023/05/23 03:16:03;;;;;;;11.95;2.30;;;12.60;99.90;;;;;;5087903;28;20168;-55
2023/05/23 03:18:29;;;;;;;10.73;2.47;;;12.30;99.90;;;;;;5093929;28;20215;-55
2023/05/23 03:20:55;;;;;;;14.50;3.07;;;12.30;99.90;;;;;;5093668;28;20210;-55
2023/05/23 03:23:21;;;;;;;12.23;2.65;;;12.30;99.90;;;;;;5093984;28;20179;-55
2023/05/23 03:25:48;;;;;;;9.13;2.43;;;12.20;99.90;;;;;;5093645;28;20171;-55
2023/05/23 03:28:13;;;;;;;11.67;2.50;;;12.20;99.90;;;;;;5093781;28;20172;-55
2023/05/23 03:30:39;;;;;;;12.65;2.58;;;12.10;99.90;;;;;;5094095;28;20561;-55
2023/05/23 03:33:06;;;;;;;14.83;2.47;;;12.10;99.90;;;;;;5093889;28;20643;-55
2023/05/23 03:35:31;;;;;;;14.67;2.77;;;12.10;99.90;;;;;;5093922;28;20183;-55
2023/05/23 03:37:57;;;;;;;8.60;2.40;;;12.10;99.90;;;;;;5093676;28;20207;-55
2023/05/23 03:40:23;;;;;;;14.80;3.17;;;12.10;99.90;;;;;;5075336;28;20214;-55
2023/05/23 03:43:03;;;;;;;16.03;2.70;;;12.10;99.90;;;;;;5093610;28;20616;-56
2023/05/23 03:45:31;;;;;;;13.90;2.90;;;12.10;99.90;;;;;;5093527;28;20214;-55
2023/05/23 03:47:58;;;;;;;8.17;2.63;;;12.10;99.90;;;;;;5093708;28;20175;-56
2023/05/23 03:50:23;;;;;;;9.83;2.50;;;12.10;99.90;;;;;;5091724;28;20207;-55
2023/05/23 03:52:49;;;;;;;17.27;2.73;;;12.10;99.90;;;;;;5073130;28;20208;-56
2023/05/23 03:55:15;;;;;;;13.07;2.80;;;12.00;99.90;;;;;;5073101;28;20256;-56
2023/05/23 03:57:40;;;;;;;12.30;2.63;;;12.00;99.90;;;;;;5073102;28;20228;-55
2023/05/23 04:00:12;;;;;;;13.40;2.97;;;12.00;99.90;;;;;;5073125;28;20203;-56
2023/05/23 04:02:39;;;;;;;11.27;2.70;;;12.00;99.90;;;;;;5072979;28;20195;-55
2023/05/23 04:05:05;;;;;;;10.90;2.30;;;12.00;99.90;;;;;;5072894;28;20176;-55
2023/05/23 04:07:35;;;;;;;10.73;2.77;;;12.00;99.90;;;;;;5072937;28;20256;-55
2023/05/23 04:10:01;;;;;;;11.73;2.53;;;12.00;99.90;;;;;;5072821;28;20165;-55
2023/05/23 04:12:29;;;;;;;13.63;2.60;;;12.00;99.90;;;;;;5073122;28;20176;-55
2023/05/23 04:14:55;;;;;;;13.40;3.00;;;12.00;99.90;;;;;;5072612;28;20181;-55
2023/05/23 04:17:21;;;;;;;9.80;2.97;;;;;;;;;;5072755;28;20173;-55
2023/05/23 04:19:47;;;;;;;37.90;2.97;;;12.00;99.90;;;;;;5072725;28;20188;-56
2023/05/23 04:22:13;;;;;;;15.30;2.50;;;;;;;;;;5072627;28;20202;-56
2023/05/23 04:24:38;;;;;;;9.40;2.77;;;11.90;99.90;;;;;;5072602;28;20588;-56
2023/05/23 04:27:04;;;;;;;8.40;2.60;;;11.90;99.90;;;;;;5054640;28;20184;-56
2023/05/23 04:29:30;;;;;;;11.70;3.20;;;11.80;99.90;;;;;;5088365;28;20179;-56
2023/05/23 04:31:57;;;;;;;9.60;3.00;;;11.80;99.90;;;;;;5090982;28;20183;-56
2023/05/23 04:34:23;;;;;;;15.37;2.87;;;12.10;99.90;;;;;;5092509;28;20180;-56
2023/05/23 04:36:49;;;;;;;19.30;2.60;;;11.90;99.90;;;;;;5092434;28;20571;-56
2023/05/23 04:39:15;;;;;;;18.13;3.37;;;11.70;99.90;;;;;;5092430;28;20799;-56
2023/05/23 04:41:44;;;;;;;14.67;3.20;;;11.90;99.90;;;;;;5091973;28;20212;-56
2023/05/23 04:44:09;;;;;;;10.10;2.90;;;11.80;99.90;;;;;;5092526;28;20184;-56
2023/05/23 04:46:35;;;;;;;15.77;2.93;;;;;;;;;;5092327;28;20164;-56
2023/05/23 04:49:03;;;;;;;12.57;2.77;;;11.80;99.90;;;;;;5092369;28;20210;-56
2023/05/23 04:51:29;;;;;;;11.68;2.67;;;;;;;;;;5081768;28;20180;-56
2023/05/23 04:53:54;;;;;;;10.83;2.70;;;11.90;99.90;;;;;;5071878;28;20633;-56
2023/05/23 04:56:21;;;;;;;14.97;3.33;;;;;;;;;;5072114;28;20233;-56
2023/05/23 04:58:46;;;;;;;15.87;2.87;;;12.00;99.90;;;;;;5073190;28;20223;-56
2023/05/23 05:01:13;;;;;;;12.10;2.90;;;11.90;99.90;;;;;;5092237;28;20534;-55
2023/05/23 05:03:39;;;;;;;14.47;3.30;;;;;;;;;;5092084;28;20175;-56
2023/05/23 05:06:05;;;;;;;11.97;2.80;;;12.00;99.90;;;;;;5091963;28;20611;-55
2023/05/23 05:08:31;;;;;;;18.13;3.63;;;11.90;99.90;;;;;;5091891;28;20250;-56
2023/05/23 05:10:57;;;;;;;14.53;2.90;;;;;;;;;;5091939;28;20190;-55
2023/05/23 05:13:23;;;;;;;18.37;3.00;;;;;;;;;;5091808;28;20168;-56
2023/05/23 05:15:49;;;;;;;16.43;3.70;;;12.00;99.90;;;;;;5091735;28;20175;-55
2023/05/23 05:18:15;;;;;;;11.13;3.10;;;;;;;;;;5091602;28;20688;-56
2023/05/23 05:20:41;;;;;;;15.50;2.80;;;12.30;99.90;;;;;;5091696;28;20175;-56
2023/05/23 05:23:08;;;;;;;13.95;3.00;;;12.10;99.90;;;;;;5091853;28;20183;-56
2023/05/23 05:25:35;;;;;;;12.50;3.20;;;;;;;;;;5091103;28;20176;-55
2023/05/23 05:28:04;;;;;;;14.43;3.23;;;;;;;;;;5091802;28;20259;-56
2023/05/23 05:30:34;;;;;;;10.47;2.77;;;12.30;99.90;;;;;;5091606;28;20647;-55
2023/05/23 05:33:04;;;;;;;19.37;3.40;;;12.20;99.90;;;;;;5073320;28;20612;-55
2023/05/23 05:35:31;;;;;;;16.27;3.10;;;;;;;;;;5091426;28;20164;-56
2023/05/23 05:37:57;;;;;;;13.98;3.08;;;12.40;99.90;;;;;;5091335;28;20668;-55
2023/05/23 05:40:23;;;;;;;16.90;3.60;;;12.50;99.90;;;;;;5091206;28;20217;-55
2023/05/23 05:42:48;;;;;;;14.00;2.80;;;12.60;99.90;;;;;;5091357;28;20263;-56
2023/05/23 05:45:15;;;;;;;21.60;3.50;;;;;;;;;;5091260;28;20216;-55
2023/05/23 05:47:41;;;;;;;19.27;3.23;;;;;;;;;;5091280;28;20506;-56
2023/05/23 05:50:08;;;;;;;18.20;3.47;;;12.40;99.90;;;;;;5091127;28;20168;-55
2023/05/23 05:52:38;;;;;;;16.80;3.23;;;;;;;;;;5090988;28;20228;-55
2023/05/23 05:55:13;;;;;;;13.70;2.50;;;13.00;99.90;;;;;;5091083;28;20164;-55
2023/05/23 05:57:39;;;;;;;15.70;3.20;;;13.00;99.90;;;;;;5091512;28;20194;-55
2023/05/23 06:00:17;;;;;;;21.48;3.90;;;13.10;99.90;;;;;;5091010;28;20619;-56
2023/05/23 06:02:47;;;;;;;12.85;3.08;;;;;;;;;;5091059;28;20160;-55
2023/05/23 06:05:15;;;;;;;18.95;3.63;;;13.40;99.90;;;;;;5090988;28;20176;-56
2023/05/23 06:07:41;;;;;;;11.25;3.30;;;13.30;99.90;;;;;;5090942;28;20221;-55
2023/05/23 06:10:08;;;;;;;17.15;3.63;;;13.30;99.90;;;;;;5090907;28;20169;-55
2023/05/23 06:12:34;;;;;;;18.80;4.22;;;13.50;99.90;;;;;;5072650;28;20180;-55
2023/05/23 06:15:00;;;;;;;12.63;3.42;;;13.50;99.90;;;;;;5090830;28;20160;-55
2023/05/23 06:17:26;;;;;;;12.85;3.75;;;13.70;99.90;;;;;;5090636;28;20597;-55
2023/05/23 06:19:52;;;;;;;26.95;4.32;;;14.10;99.90;;;;;;5090870;28;20183;-55
2023/05/23 06:22:17;;;;;;;22.92;3.88;;;13.70;99.90;;;;;;5090055;28;20687;-55
2023/05/23 06:24:43;;;;;;;19.67;4.57;;;13.80;99.90;;;;;;5090669;28;20167;-55
2023/05/23 06:27:09;;;;;;;24.88;4.28;;;13.90;99.90;;;;;;5090595;28;20167;-56
2023/05/23 06:29:35;;;;;;;16.98;4.32;;;14.20;99.90;;;;;;5072445;28;20176;-56
2023/05/23 06:32:01;;;;;;;21.35;3.85;;;14.10;99.90;;;;;;5090763;28;20183;-55
2023/05/23 06:34:27;;;;;;;15.98;4.15;;;14.20;99.90;;;;;;5090458;28;20501;-55
2023/05/23 06:36:52;;;;;;;18.30;4.70;;;14.30;29.30;;;;;;5091381;28;20282;-56
2023/05/23 06:39:18;;;;;;;16.77;4.25;;;14.30;1.00;;;;;;5094621;28;20743;-55
2023/05/23 06:41:44;;;;;;;17.10;3.88;;;14.40;1.00;;;;;;5094666;28;20211;-55
2023/05/23 06:44:09;;;;;;;21.65;4.78;;;14.60;1.00;;;;;;5089665;28;20172;-55
2023/05/23 06:46:35;;;;;;;21.98;4.28;;;14.50;1.00;;;;;;5074366;28;20211;-56
2023/05/23 06:49:00;;;;;;;19.30;4.18;;;14.70;1.00;;;;;;5092039;28;20674;-54
2023/05/23 06:51:26;;;;;;;24.13;4.60;;;14.70;99.90;;;;;;5094463;28;20214;-55
2023/05/23 06:53:51;;;;;;;20.42;4.97;;;14.80;99.90;;;;;;5094494;28;20164;-55
2023/05/23 06:56:17;;;;;;;21.38;5.22;;;14.90;1.00;;;;;;5093587;28;20172;-56
2023/05/23 06:58:43;;;;;;;16.23;4.60;;;14.90;1.00;;;;;;5075853;28;20226;-56
2023/05/23 07:01:09;;;;;;;16.35;4.45;;;14.90;1.00;;;;;;5094183;28;20331;-56
2023/05/23 07:03:37;;;;;;;22.67;4.55;;;15.00;1.00;;;;;;5094026;28;20184;-56
2023/05/23 07:06:03;;;;;;;17.15;3.88;;;15.10;99.90;;;;;;5094186;28;20636;-56
2023/05/23 07:08:28;;;;;;;20.02;4.40;;;15.30;99.90;;;;;;5076038;28;20187;-56
2023/05/23 07:10:54;;;;;;;11.05;3.85;;;15.30;1.00;;;;;;5087619;28;20187;-56
2023/05/23 07:13:20;;;;;;;20.15;4.20;;;15.10;1.00;;;;;;5093712;28;20579;-56
2023/05/23 07:15:45;;;;;;;18.27;4.20;;;15.40;1.00;;;;;;5094006;28;20168;-56
2023/05/23 07:18:11;;;;;;;19.38;4.05;;;15.50;1.00;;;;;;5089315;28;20576;-53
2023/05/23 07:20:37;;;;;;;15.70;3.67;;;15.60;1.00;;;;;;5094007;28;20206;-54
2023/05/23 07:23:03;;;;;;;13.98;3.63;;;15.80;99.90;;;;;;5093902;28;20182;-54
2023/05/23 07:25:28;;;;;;;19.73;3.58;;;15.80;99.90;;;;;;5093969;28;20632;-54
2023/05/23 07:27:54;;;;;;;15.23;3.85;;;15.90;99.90;;;;;;5093469;28;20187;-54
2023/05/23 07:30:21;;;;;;;16.63;4.32;;;16.00;69.80;;;;;;5093861;28;20200;-54
2023/05/23 07:32:47;;;;;;;11.35;3.10;;;16.10;99.90;;;;;;5093604;28;20176;-53
2023/05/23 07:35:14;;;;;;;16.60;3.80;;;15.90;1.00;;;;;;5093775;28;20220;-53
2023/05/23 07:37:39;;;;;;;18.08;3.58;;;16.10;99.90;;;;;;5093361;28;20221;-55
2023/05/23 07:40:07;;;;;;;17.10;3.80;;;16.10;1.00;;;;;;5093368;28;20713;-54
2023/05/23 07:42:33;;;;;;;13.02;3.70;;;16.20;99.90;;;;;;5093405;28;20164;-54
2023/05/23 07:44:59;;;;;;;16.73;3.78;;;16.40;1.00;;;;;;5075294;28;20176;-54
2023/05/23 07:47:26;;;;;;;14.35;3.95;;;16.50;1.00;;;;;;5092361;28;20176;-53
2023/05/23 07:49:52;;;;;;;18.10;3.55;;;16.60;1.00;;;;;;5092622;28;20175;-54
2023/05/23 07:52:18;;;;;;;19.73;3.80;;;;;;;;;;5093775;28;20348;-54
2023/05/23 07:54:43;;;;;;;17.63;3.90;;;16.70;1.00;;;;;;5092894;28;20175;-54
2023/05/23 07:57:09;;;;;;;17.02;3.95;;;16.80;99.90;;;;;;5082902;28;20184;-54
2023/05/23 07:59:35;;;;;;;17.02;4.47;;;16.80;1.00;;;;;;5093068;28;20237;-55
2023/05/23 08:02:01;;;;;;;16.63;4.15;;;16.80;90.30;;;;;;5093303;28;20175;-55
2023/05/23 08:04:28;;;;;;;17.67;4.78;;;16.60;1.00;;;;;;5093021;28;20254;-54
2023/05/23 08:06:54;;;;;;;11.02;3.92;;;16.50;99.90;;;;;;5092567;28;20222;-55
2023/05/23 08:09:20;;;;;;;12.70;3.67;;;16.80;1.00;;;;;;5093043;28;20164;-54
2023/05/23 08:11:46;;;;;;;11.82;3.67;;;16.70;1.00;;;;;;5092825;28;20182;-54
2023/05/23 08:14:11;;;;;;;14.85;3.65;;;16.70;29.10;;;;;;5092995;28;20246;-55
2023/05/23 08:16:37;;;;;;;18.98;4.32;;;16.70;1.00;;;;;;5092548;28;20191;-55
2023/05/23 08:19:03;;;;;;;17.60;4.43;;;16.80;1.00;;;;;;5086552;28;20212;-55
2023/05/23 08:21:28;;;;;;;15.70;3.95;;;16.60;1.00;;;;;;5072686;28;20706;-55
2023/05/23 08:23:54;;;;;;;14.32;4.07;;;16.60;99.90;;;;;;5072458;28;20176;-55
2023/05/23 08:26:20;;;;;;;14.45;3.80;;;16.60;1.00;;;;;;5074462;28;20247;-55
2023/05/23 08:28:46;;;;;;;16.98;4.28;;;16.50;99.90;;;;;;5092870;28;20243;-55
2023/05/23 08:31:11;;;;;;;20.67;3.45;;;16.30;99.90;;;;;;5070332;28;20267;-54
2023/05/23 08:33:37;;;;;;;15.70;3.88;;;16.40;1.00;;;;;;5071976;28;20204;-54
2023/05/23 08:36:03;;;;;;;12.65;4.30;;;16.50;1.00;;;;;;5072195;28;20165;-55
2023/05/23 08:38:28;;;;;;;18.08;4.38;;;16.50;10.80;;;;;;5072242;28;20216;-55
2023/05/23 08:40:55;;;;;;;17.15;3.72;;;16.60;1.00;;;;;;5072179;28;20278;-55
2023/05/23 08:43:21;;;;;;;18.23;4.18;;;16.70;1.00;;;;;;5072213;28;20269;-55
2023/05/23 08:45:50;;;;;;;15.95;3.78;;;16.40;1.00;;;;;;5072192;28;20176;-55
2023/05/23 08:48:19;;;;;;;9.73;3.67;;;16.60;1.00;;;;;;5054053;28;20672;-55
2023/05/23 08:50:46;;;;;;;14.73;4.65;;;16.50;1.00;;;;;;5071984;28;20175;-55
2023/05/23 08:53:19;;;;;;;14.25;3.67;;;16.40;1.00;;;;;;5072288;28;20177;-54
2023/05/23 08:55:50;;;;;;;12.45;3.78;;;16.40;1.00;;;;;;5072129;28;20710;-55
2023/05/23 08:58:21;;;;;;;19.65;4.18;;;16.50;1.00;;;;;;5071870;28;20269;-55
2023/05/23 09:00:47;;;;;;;15.48;4.38;;;17.00;1.00;;;;;;5070903;28;20176;-55
2023/05/23 09:03:13;;;;;;;12.27;4.10;;;17.10;1.00;;;;;;5071693;28;20686;-55
2023/05/23 09:05:39;;;;;;;12.40;3.85;;;17.50;1.00;;;;;;5071979;28;20184;-55
2023/05/23 09:08:04;;;;;;;15.23;4.20;;;17.90;1.00;;;;;;5071674;28;20164;-55
2023/05/23 09:10:30;;;;;;;17.45;4.55;;;17.90;1.00;;;;;;5071716;28;20234;-55
2023/05/23 09:12:57;;;;;;;14.88;4.18;;;17.90;1.00;;;;;;5071439;28;20169;-55
2023/05/23 09:15:23;;;;;;;12.85;3.97;;;18.10;99.90;;;;;;5072005;28;20176;-55
2023/05/23 09:17:49;;;;;;;19.10;3.88;;;17.90;99.90;;;;;;5091141;28;20218;-55
2023/05/23 09:20:17;;;;;;;13.93;3.60;;;18.40;50.30;;;;;;5091593;28;20216;-55
2023/05/23 09:22:47;;;;;;;16.02;3.80;;;18.90;1.00;;;;;;5079877;28;20184;-55
2023/05/23 09:25:13;;;;;;;14.80;3.70;;;19.60;1.00;;;;;;5071407;28;20477;-55
2023/05/23 09:27:38;;;;;;;10.48;3.75;;;19.50;1.00;;;;;;5053511;28;20671;-55
2023/05/23 09:30:11;;;;;;;13.95;4.00;;;19.50;10.00;;;;;;5071120;28;20255;-54
2023/05/23 09:32:37;;;;;;;12.98;3.72;;;19.00;1.00;;;;;;5071096;28;20704;-55
2023/05/23 09:35:11;;;;;;;11.32;3.83;;;19.10;1.00;;;;;;5084101;28;20171;-55
2023/05/23 09:37:39;;;;;;;10.93;3.83;;;19.30;1.00;;;;;;5091278;28;20172;-55
2023/05/23 09:40:12;;;;;;;10.57;3.55;;;19.30;1.00;;;;;;5091198;28;20180;-55
2023/05/23 09:42:43;;;;;;;10.90;3.67;;;19.70;1.00;;;;;;5091359;28;20255;-55
2023/05/23 09:45:09;;;;;;;11.82;3.88;;;20.20;1.00;;;;;;5091189;28;20175;-55
2023/05/23 09:47:35;;;;;;;12.93;3.90;;;19.90;1.00;;;;;;5091306;28;20175;-55
2023/05/23 09:50:00;;;;;;;18.55;4.43;;;19.90;1.00;;;;;;5091249;28;20171;-55
2023/05/23 09:52:26;;;;;;;11.73;3.60;;;;;;;;;;5091086;28;20160;-55
2023/05/23 09:54:53;;;;;;;12.82;4.15;;;20.00;1.00;;;;;;5091040;28;20174;-55
2023/05/23 09:57:22;;;;;;;9.80;3.83;;;19.70;1.00;;;;;;5090964;28;20172;-55
2023/05/23 09:59:57;;;;;;;14.88;3.85;;;20.10;1.00;;;;;;5090783;28;20222;-55
2023/05/23 10:02:49;;;;;;;10.73;4.03;;;20.60;1.00;;;;;;5090755;28;20239;-55
2023/05/23 10:05:33;;;;;;;13.00;4.15;;;20.30;1.00;;;;;;5066878;28;20203;-55
2023/05/23 10:08:01;;;;;;;10.23;3.80;;;21.10;1.00;;;;;;5090692;28;20258;-57
2023/05/23 10:10:31;;;;;;;10.10;3.10;;;21.60;1.00;;;;;;5087134;28;20211;-55
2023/05/23 10:12:59;;;;;;;12.18;3.95;;;21.70;1.00;;;;;;5070395;28;20180;-55
2023/05/23 10:15:27;;;;;;;7.57;3.25;;;21.80;1.00;;;;;;5070761;28;20164;-55
2023/05/23 10:17:53;;;;;;;12.95;3.35;;;22.10;1.00;;;;;;5070524;28;20196;-55
2023/05/23 10:20:24;;;;;;;7.32;3.00;;;21.80;1.00;;;;;;5070564;28;20181;-55
2023/05/23 10:22:51;;;;;;;10.93;3.72;;;21.30;1.00;;;;;;5070643;28;20192;-55
2023/05/23 10:25:17;;;;;;;11.32;3.60;;;21.40;1.00;;;;;;5070777;28;20584;-55
2023/05/23 10:27:43;;;;;;;9.95;3.30;;;21.30;1.00;;;;;;5052431;28;20633;-56
2023/05/23 10:30:09;;;;;;;14.75;3.75;;;21.30;1.00;;;;;;5070377;28;20822;-57
2023/05/23 10:32:38;;;;;;;12.95;3.42;;;20.80;1.00;;;;;;5070497;28;20164;-57
2023/05/23 10:35:20;;;;;;;12.80;3.63;;;21.20;1.00;;;;;;5070276;28;20636;-56
2023/05/23 10:37:52;;;;;;;11.70;3.75;;;21.30;1.00;;;;;;5070289;28;20175;-57
2023/05/23 10:40:55;;;;;;;8.52;3.15;;;20.90;1.00;;;;;;5070187;28;20214;-57
2023/05/23 10:43:35;;;;;;;11.43;3.95;;;20.60;1.00;;;;;;5038852;28;20275;-56
2023/05/23 10:46:01;;;;;;;17.90;3.45;;;20.90;1.00;;;;;;5070258;28;20161;-56
2023/05/23 10:48:41;;;;;;;13.20;3.80;;;20.40;1.00;;;;;;5070275;28;20184;-56
2023/05/23 10:51:13;;;;;;;8.95;3.58;;;20.40;1.00;;;;;;5070316;28;20251;-56
2023/05/23 10:53:43;;;;;;;7.78;2.90;;;20.60;1.00;;;;;;5070210;28;20300;-57
2023/05/23 10:56:18;;;;;;;10.00;3.17;;;20.10;1.00;;;;;;5070510;28;20193;-56
2023/05/23 10:58:43;;;;;;;8.43;3.30;;;20.30;1.00;;;;;;5070128;28;20265;-56
2023/05/23 11:01:15;;;;;;;8.35;2.92;;;20.00;1.00;;;;;;5070287;28;20160;-57
2023/05/23 11:03:47;;;;;;;7.97;3.42;;;19.90;1.00;;;;;;5070122;28;20180;-57
2023/05/23 11:06:28;;;;;;;11.40;3.40;;;19.70;1.00;;;;;;5070108;28;20200;-56
2023/05/23 11:09:02;;;;;;;9.95;3.47;;;19.80;1.00;;;;;;5070347;28;20168;-56
2023/05/23 11:11:53;;;;;;;8.02;3.10;;;19.60;1.00;;;;;;5081999;28;20249;-56
2023/05/23 11:14:30;;;;;;;12.35;3.60;;;19.70;1.00;;;;;;5090165;28;20180;-56
2023/05/23 11:16:55;;;;;;;9.27;3.42;;;19.60;1.00;;;;;;5090281;28;20254;-55
2023/05/23 11:19:24;;;;;;;10.50;3.92;;;20.20;1.00;;;;;;5090101;28;20659;-54
2023/05/23 11:22:01;;;;;;;10.63;3.58;;;19.50;1.00;;;;;;5090154;28;20204;-55
2023/05/23 11:24:52;;;;;;;12.02;3.53;;;19.70;1.00;;;;;;5073514;28;20643;-55
2023/05/23 11:27:33;;;;;;;9.02;3.00;;;19.60;1.00;;;;;;5093821;28;20171;-55
2023/05/23 11:30:16;;;;;;;8.82;3.35;;;19.70;1.00;;;;;;5093763;28;20229;-55
2023/05/23 11:32:52;;;;;;;11.38;3.38;;;19.70;1.00;;;;;;5093613;28;20722;-55
2023/05/23 11:35:19;;;;;;;13.07;3.33;;;20.10;1.00;;;;;;5093529;28;20167;-55
2023/05/23 11:37:46;;;;;;;11.00;3.47;;;20.20;1.00;;;;;;5093781;28;20186;-54
2023/05/23 11:40:38;;;;;;;10.30;3.33;;;20.90;1.00;;;;;;5093409;28;20222;-55
2023/05/23 11:43:12;;;;;;;14.07;3.50;;;20.90;1.00;;;;;;5093500;28;20206;-55
2023/05/23 11:45:39;;;;;;;11.50;4.03;;;20.90;1.00;;;;;;5093477;28;20174;-55
2023/05/23 11:48:06;;;;;;;14.93;3.83;;;20.80;1.00;;;;;;5093290;28;20183;-55
2023/05/23 11:50:32;;;;;;;10.73;3.35;;;20.70;1.00;;;;;;5093378;28;20163;-55
2023/05/23 11:52:58;;;;;;;9.88;3.78;;;20.40;1.00;;;;;;5093456;28;20236;-55
2023/05/23 11:55:24;;;;;;;12.75;3.80;;;20.60;1.00;;;;;;5093325;28;20195;-55
2023/05/23 11:57:50;;;;;;;11.18;3.63;;;20.60;1.00;;;;;;5093493;28;20211;-55
2023/05/23 12:00:17;;;;;;;12.43;3.45;;;20.20;1.00;;;;;;5093121;28;20176;-55
2023/05/23 12:02:45;;;;;;;9.27;3.38;;;20.40;1.00;;;;;;5093317;28;20180;-55
2023/05/23 12:05:15;;;;;;;9.13;3.67;;;20.60;1.00;;;;;;5093199;28;20168;-55
2023/05/23 12:07:47;;;;;;;6.47;2.78;;;21.30;1.00;;;;;;5093006;28;20167;-55
2023/05/23 12:10:16;;;;;;;7.38;3.05;;;21.30;1.00;;;;;;5091154;28;20258;-55
2023/05/23 12:12:43;;;;;;;15.13;4.45;;;21.50;1.00;;;;;;5072640;28;20204;-55
2023/05/23 12:15:12;;;;;;;9.60;3.08;;;21.50;1.00;;;;;;5072579;28;20214;-55
2023/05/23 12:17:38;;;;;;;8.57;3.10;;;21.60;1.00;;;;;;5072602;28;20724;-55
2023/05/23 12:20:07;;;;;;;14.45;3.75;;;21.50;1.00;;;;;;5072634;28;20198;-55
2023/05/23 12:22:33;;;;;;;6.78;3.25;;;22.20;1.00;;;;;;5072659;28;20574;-55
2023/05/23 12:24:59;;;;;;;8.57;3.03;;;22.20;1.00;;;;;;5054439;28;20184;-55
2023/05/23 12:27:30;;;;;;;11.70;3.20;;;23.00;1.00;;;;;;5072525;28;20168;-56
2023/05/23 12:30:17;;;;;;;13.82;3.28;;;23.50;1.00;;;;;;5072618;28;20183;-55
2023/05/23 12:32:45;;;;;;;10.15;3.35;;;23.30;1.00;;;;;;5072371;28;20172;-55
2023/05/23 12:35:12;;;;;;;5.38;2.72;;;23.10;1.00;;;;;;5072207;28;20176;-54
2023/05/23 12:37:44;;;;;;;6.10;2.60;;;22.80;1.00;;;;;;5054383;28;20182;-54
2023/05/23 12:40:13;;;;;;;8.40;2.97;;;23.10;1.00;;;;;;5071871;28;20629;-55
2023/05/23 12:42:53;;;;;;;5.65;2.40;;;22.60;1.00;;;;;;5072196;28;20196;-58
2023/05/23 12:45:23;;;;;;;14.93;3.05;;;22.80;1.00;;;;;;5072063;28;20218;-57
2023/05/23 12:47:49;;;;;;;28.05;5.18;;;22.80;1.00;;;;;;5071932;28;20179;-56
2023/05/23 12:50:15;;;;;;;14.30;3.35;;;22.90;1.00;;;;;;5072022;28;20172;-56
2023/05/23 12:52:41;;;;;;;11.75;2.85;;;23.30;1.00;;;;;;5054194;28;20176;-57
2023/05/23 12:55:07;;;;;;;6.07;2.88;;;24.70;1.00;;;;;;5072074;28;20245;-57
2023/05/23 12:57:34;;;;;;;8.88;2.50;;;25.00;1.00;;;;;;5053913;28;20205;-56
2023/05/23 13:00:00;;;;;;;8.68;2.55;;;24.70;1.00;;;;;;5071646;28;20208;-57